Time;durP1;ratioP1;P1;durP2;ratioP2;P2;SDS_P1;SDS_P2;PMS_P1;PMS_P2;Temp;Humidity;BMP_temperature;BMP_pressure;BME280_temperature;BME280_humidity;BME280_pressure;Samples;Min_cycle;Max_cycle;Signal;HPM_P1;HPM_P2
2022/09/05 00:00:40;;;;;;;7.22;3.70;;;;;;;12.71;100.00;96011.06;5026321;28;20045;-75
2022/09/05 00:03:35;;;;;;;5.93;3.67;;;;;;;12.65;100.00;96001.59;5025439;28;20048;-76
2022/09/05 00:06:23;;;;;;;5.38;3.28;;;;;;;12.70;100.00;95998.16;5028635;28;20036;-76
2022/09/05 00:09:15;;;;;;;6.57;3.75;;;;;;;12.57;100.00;95995.03;5017321;28;20171;-76
2022/09/05 00:12:02;;;;;;;6.25;3.85;;;;;;;12.47;100.00;95995.09;5023109;28;20096;-76
2022/09/05 00:14:49;;;;;;;11.68;4.43;;;;;;;12.57;100.00;95997.69;5035764;28;20045;-76
2022/09/05 00:17:41;;;;;;;11.13;3.92;;;;;;;12.59;100.00;95990.28;5019060;28;20095;-76
2022/09/05 00:20:32;;;;;;;6.55;3.67;;;;;;;12.60;100.00;95994.50;5028703;28;20761;-76
2022/09/05 00:23:16;;;;;;;5.85;3.50;;;;;;;12.48;100.00;95996.63;5027667;28;20044;-77
2022/09/05 00:26:20;;;;;;;5.97;3.50;;;;;;;12.58;100.00;95991.31;5028170;28;20048;-76
2022/09/05 00:29:18;;;;;;;5.78;3.58;;;;;;;12.53;100.00;95999.28;5024433;28;20103;-76
2022/09/05 00:32:26;;;;;;;6.22;3.53;;;;;;;12.43;100.00;95988.75;5027702;28;20048;-76
2022/09/05 00:35:56;;;;;;;8.65;3.67;;;;;;;12.41;100.00;95996.13;5021938;28;20183;-77
2022/09/05 00:38:56;;;;;;;9.60;3.55;;;;;;;12.26;100.00;95995.13;5018816;28;20487;-76
2022/09/05 00:41:41;;;;;;;12.40;4.43;;;;;;;12.14;100.00;95992.00;5016405;28;20171;-76
2022/09/05 00:44:31;;;;;;;5.40;3.30;;;;;;;12.25;100.00;95998.81;5026579;28;20546;-77
2022/09/05 00:47:34;;;;;;;7.60;3.47;;;;;;;12.27;100.00;95991.44;5026965;28;20044;-76
2022/09/05 00:50:29;;;;;;;7.53;3.33;;;;;;;12.34;100.00;95995.63;5030523;28;20410;-76
2022/09/05 00:53:13;;;;;;;4.75;3.17;;;;;;;12.36;100.00;95993.53;5022629;28;20044;-76
2022/09/05 00:56:17;;;;;;;5.53;3.60;;;;;;;12.21;100.00;95991.69;5027399;28;20052;-76
2022/09/05 00:59:23;;;;;;;8.65;3.20;;;;;;;12.16;100.00;95989.88;5032193;28;20035;-76
2022/09/05 01:02:15;;;;;;;6.45;3.83;;;;;;;12.18;100.00;95984.31;5027559;28;20087;-76
2022/09/05 01:05:02;;;;;;;5.57;3.20;;;;;;;12.07;100.00;95980.94;5030036;28;20060;-75
2022/09/05 01:08:24;;;;;;;9.20;3.50;;;;;;;12.04;100.00;95986.72;5022238;28;20037;-75
2022/09/05 01:11:35;;;;;;;8.95;3.40;;;;;;;12.03;100.00;95985.16;5024407;28;20047;-76
2022/09/05 01:14:35;;;;;;;8.15;3.72;;;;;;;11.82;100.00;95985.13;5033415;28;20051;-75
2022/09/05 01:17:41;;;;;;;5.00;3.15;;;;;;;11.81;100.00;95983.56;5027863;28;20036;-76
2022/09/05 01:20:46;;;;;;;5.22;3.28;;;;;;;12.00;100.00;95985.69;5027462;28;20052;-75
2022/09/05 01:24:15;;;;;;;5.72;3.47;;;;;;;11.97;100.00;95992.28;5034774;28;20051;-75
2022/09/05 01:27:30;;;;;;;5.50;3.60;;;;;;;11.68;100.00;95989.34;5037434;28;20503;-75
2022/09/05 01:30:22;;;;;;;6.90;3.70;;;;;;;11.90;100.00;95987.25;5018260;28;20044;-76
2022/09/05 01:33:21;;;;;;;5.88;3.50;;;;;;;11.81;100.00;95985.41;5016412;28;20037;-75
2022/09/05 01:36:29;;;;;;;10.32;3.72;;;;;;;11.71;100.00;95984.38;5019503;28;20060;-76
2022/09/05 01:39:41;;;;;;;5.97;3.35;;;;;;;11.75;100.00;95990.69;5034171;28;20087;-75
2022/09/05 01:42:59;;;;;;;5.85;3.28;;;;;;;11.60;100.00;95986.19;5023354;28;20179;-76
2022/09/05 01:45:54;;;;;;;7.25;4.70;;;;;;;11.58;100.00;95990.16;5026454;28;20044;-76
2022/09/05 01:49:07;;;;;;;6.47;3.30;;;;;;;11.57;100.00;95989.38;5014684;28;20056;-76
2022/09/05 01:52:19;;;;;;;5.90;3.35;;;;;;;11.60;100.00;95983.56;5019011;28;20080;-76
2022/09/05 01:55:12;;;;;;;6.30;3.28;;;;;;;11.53;100.00;95983.03;5032409;28;20129;-75
2022/09/05 01:58:07;;;;;;;7.75;3.38;;;;;;;11.48;100.00;95993.59;5028706;28;20044;-76
2022/09/05 02:01:01;;;;;;;5.35;2.92;;;;;;;11.49;100.00;95992.50;5027183;28;20097;-76
2022/09/05 02:04:16;;;;;;;5.32;3.45;;;;;;;11.48;100.00;95980.41;5019674;28;20792;-75
2022/09/05 02:07:04;;;;;;;7.45;4.10;;;;;;;11.51;100.00;95990.41;5030368;28;20043;-75
2022/09/05 02:09:48;;;;;;;7.43;3.72;;;;;;;11.55;100.00;95990.66;5030697;28;20920;-76
2022/09/05 02:13:01;;;;;;;8.20;3.43;;;;;;;11.60;100.00;95988.84;5023040;28;20037;-76
2022/09/05 02:15:56;;;;;;;6.32;3.42;;;;;;;11.52;100.00;95986.75;5015978;28;20381;-75
2022/09/05 02:18:51;;;;;;;7.38;3.67;;;;;;;11.49;100.00;95995.16;5028676;28;20091;-76
2022/09/05 02:21:50;;;;;;;6.50;3.10;;;;;;;11.46;100.00;95993.03;5031020;28;20617;-76
2022/09/05 02:24:43;;;;;;;5.55;3.15;;;;;;;11.44;100.00;95992.53;5029631;28;20398;-76
2022/09/05 02:27:30;;;;;;;5.30;3.35;;;;;;;11.32;100.00;95997.25;5018253;28;20606;-76
2022/09/05 02:30:29;;;;;;;6.88;3.50;;;;;;;11.25;100.00;96002.78;5016966;28;20095;-76
2022/09/05 02:33:28;;;;;;;5.72;3.42;;;;;;;11.29;100.00;96003.03;5038092;28;20215;-76
2022/09/05 02:36:35;;;;;;;5.15;3.10;;;;;;;11.29;100.00;96003.03;5019212;28;20036;-76
2022/09/05 02:39:31;;;;;;;7.75;3.35;;;;;;;11.13;100.00;96000.38;5020497;28;20469;-76
2022/09/05 02:42:29;;;;;;;7.57;3.17;;;;;;;11.06;100.00;95999.81;5028710;28;20048;-76
2022/09/05 02:45:33;;;;;;;5.85;3.53;;;;;;;11.08;100.00;96003.00;5030549;28;20072;-77
2022/09/05 02:48:55;;;;;;;5.57;2.83;;;;;;;11.10;100.00;96000.91;5023702;28;20064;-76
2022/09/05 02:52:04;;;;;;;6.43;3.28;;;;;;;10.96;100.00;96005.06;5023594;28;20045;-76
2022/09/05 02:54:49;;;;;;;6.82;3.15;;;;;;;11.08;100.00;96005.66;5029797;28;20064;-76
2022/09/05 02:57:42;;;;;;;4.90;3.00;;;;;;;10.90;100.00;96002.44;5021715;28;20052;-76
2022/09/05 03:00:37;;;;;;;5.15;3.10;;;;;;;10.99;100.00;96004.56;5015665;28;20598;-76
2022/09/05 03:03:33;;;;;;;7.65;3.30;;;;;;;11.03;100.00;96005.63;5032081;28;20044;-77
2022/09/05 03:06:34;;;;;;;12.38;3.28;;;;;;;10.89;100.00;95998.22;5030862;28;20060;-77
2022/09/05 03:09:24;;;;;;;8.85;3.55;;;;;;;10.89;100.00;96006.13;5025527;28;20052;-76
2022/09/05 03:12:28;;;;;;;7.25;3.10;;;;;;;10.85;100.00;96004.28;5036765;28;20048;-77
2022/09/05 03:15:15;;;;;;;6.95;3.08;;;;;;;10.76;100.00;96006.59;5055329;28;20036;-76
2022/09/05 03:18:18;;;;;;;6.40;3.40;;;;;;;10.64;100.00;96009.44;5056613;28;20052;-76
2022/09/05 03:21:20;;;;;;;6.50;3.20;;;;;;;10.68;100.00;96009.72;5050191;28;20084;-76
2022/09/05 03:24:30;;;;;;;9.57;3.17;;;;;;;10.75;100.00;96005.81;5047243;28;20076;-76
2022/09/05 03:27:52;;;;;;;6.57;3.45;;;;;;;10.72;100.00;96011.59;5059323;28;20072;-75
2022/09/05 03:30:36;;;;;;;5.93;3.30;;;;;;;10.70;100.00;96023.41;5046301;28;20071;-75
2022/09/05 03:33:20;;;;;;;7.73;3.20;;;;;;;10.60;100.00;96015.47;5053991;28;20036;-76
2022/09/05 03:36:41;;;;;;;6.00;3.17;;;;;;;10.71;100.00;96003.94;5048948;28;20065;-76
2022/09/05 03:39:28;;;;;;;4.45;3.00;;;;;;;10.69;100.00;96006.84;5054676;28;20060;-75
2022/09/05 03:42:24;;;;;;;9.93;2.97;;;;;;;10.71;100.00;96009.22;5047195;28;20036;-76
2022/09/05 03:45:17;;;;;;;5.43;3.40;;;;;;;10.70;100.00;96010.25;5036471;28;20123;-77
2022/09/05 03:48:32;;;;;;;5.20;3.45;;;;;;;10.63;100.00;96001.81;5029525;28;20236;-76
2022/09/05 03:51:35;;;;;;;6.85;3.30;;;;;;;10.61;100.00;96004.69;5027989;28;20116;-76
2022/09/05 03:54:58;;;;;;;6.65;3.30;;;;;;;10.64;100.00;96003.38;5026869;28;20044;-77
2022/09/05 03:58:13;;;;;;;4.65;3.00;;;;;;;10.49;100.00;95997.00;5039294;28;20040;-77
2022/09/05 04:01:07;;;;;;;8.00;3.17;;;;;;;10.39;100.00;96002.22;5026432;28;20099;-77
2022/09/05 04:03:57;;;;;;;5.70;3.35;;;;;;;10.36;100.00;96002.75;5028430;28;20626;-76
2022/09/05 04:06:47;;;;;;;5.57;3.20;;;;;;;10.34;100.00;95999.56;5030919;28;20465;-76
2022/09/05 04:09:56;;;;;;;9.00;3.40;;;;;;;10.38;100.00;96005.91;5028869;28;20470;-76
2022/09/05 04:12:57;;;;;;;8.57;3.40;;;;;;;10.37;100.00;95999.03;5022227;28;20040;-76
2022/09/05 04:15:47;;;;;;;8.77;3.30;;;;;;;10.45;100.00;96006.47;5023562;28;20100;-76
2022/09/05 04:18:50;;;;;;;11.80;3.75;;;;;;;10.41;100.00;96000.13;5029612;28;20623;-76
2022/09/05 04:21:43;;;;;;;5.22;3.08;;;;;;;10.41;100.00;95994.88;5017501;28;20126;-79
2022/09/05 04:24:39;;;;;;;5.45;3.08;;;;;;;10.43;100.00;95995.41;5021376;28;20195;-77
2022/09/05 04:27:27;;;;;;;9.10;3.80;;;;;;;10.36;100.00;96000.13;5025817;28;20095;-77
2022/09/05 04:30:44;;;;;;;5.35;3.28;;;;;;;10.34;100.00;96002.19;5018403;28;20048;-77
2022/09/05 04:33:42;;;;;;;4.95;3.20;;;;;;;10.33;100.00;96001.38;5031016;28;20147;-77
2022/09/05 04:36:31;;;;;;;5.30;3.15;;;;;;;10.36;100.00;96002.75;5023830;28;20063;-78
2022/09/05 04:39:19;;;;;;;7.00;3.38;;;;;;;10.33;100.00;96000.56;5026745;28;20037;-77
2022/09/05 04:42:23;;;;;;;5.28;3.17;;;;;;;10.32;100.00;95996.38;5025309;28;20505;-78
2022/09/05 04:45:12;;;;;;;7.30;3.10;;;;;;;10.40;100.00;95998.53;5028385;28;20036;-78
2022/09/05 04:48:02;;;;;;;5.28;3.30;;;;;;;10.35;100.00;95995.91;5029793;28;20044;-78
2022/09/05 04:51:04;;;;;;;4.70;3.10;;;;;;;10.37;100.00;95999.03;5029711;28;20461;-78
2022/09/05 04:54:04;;;;;;;6.85;3.38;;;;;;;10.38;100.00;96013.78;5030535;28;20088;-77
2022/09/05 04:57:02;;;;;;;6.38;3.88;;;;;;;10.50;100.00;96019.66;5020681;28;20092;-76
2022/09/05 05:00:01;;;;;;;7.53;3.35;;;;;;;10.52;100.00;96017.53;5013681;28;20037;-77
2022/09/05 05:02:49;;;;;;;8.32;3.25;;;;;;;10.51;100.00;96023.84;5023259;28;20048;-77
2022/09/05 05:05:48;;;;;;;5.47;3.25;;;;;;;10.51;100.00;96021.22;5022787;28;20553;-77
2022/09/05 05:08:41;;;;;;;7.80;3.53;;;;;;;10.63;100.00;96023.66;5024303;28;20502;-77
2022/09/05 05:11:47;;;;;;;5.13;3.15;;;;;;;10.63;100.00;96022.84;5023676;28;20127;-77
2022/09/05 05:14:35;;;;;;;7.65;3.13;;;;;;;10.61;100.00;96027.59;5039591;28;20496;-77
2022/09/05 05:17:37;;;;;;;9.82;3.15;;;;;;;10.56;100.00;96029.16;5029293;28;20084;-77
2022/09/05 05:20:32;;;;;;;6.65;2.95;;;;;;;10.67;100.00;96034.47;5029741;28;20559;-77
2022/09/05 05:23:19;;;;;;;6.80;3.28;;;;;;;10.58;100.00;96024.41;5028386;28;21933;-77
2022/09/05 05:26:25;;;;;;;4.90;3.17;;;;;;;10.63;100.00;96036.00;5030159;28;20366;-77
2022/09/05 05:29:21;;;;;;;4.88;3.28;;;;;;;10.78;100.00;96041.34;5008018;28;20056;-78
2022/09/05 05:32:06;;;;;;;7.22;3.17;;;;;;;10.97;100.00;96038.25;5029198;28;20095;-77
2022/09/05 05:34:54;;;;;;;6.85;3.50;;;;;;;11.07;100.00;96038.28;5031239;28;20044;-77
2022/09/05 05:37:54;;;;;;;4.78;3.05;;;;;;;11.08;100.00;96050.41;5025642;28;20127;-77
2022/09/05 05:40:45;;;;;;;6.88;3.28;;;;;;;11.19;100.00;96057.31;5032046;28;20063;-77
2022/09/05 05:43:41;;;;;;;7.93;3.58;;;;;;;11.19;100.00;96051.22;5027904;28;20091;-77
2022/09/05 05:46:34;;;;;;;6.63;3.42;;;;;;;11.23;100.00;96050.47;5027583;28;20087;-77
2022/09/05 05:49:38;;;;;;;7.28;3.47;;;;;;;11.39;100.00;96055.75;5022200;28;20238;-77
2022/09/05 05:52:49;;;;;;;6.47;3.60;;;;;;;11.53;100.00;96051.56;5029707;28;20040;-77
2022/09/05 05:55:33;;;;;;;12.27;3.55;;;;;;;11.54;100.00;96062.91;5021838;28;20370;-76
2022/09/05 05:58:38;;;;;;;11.57;3.80;;;;;;;11.60;100.00;96061.84;5023234;28;20040;-78
2022/09/05 06:02:01;;;;;;;8.82;3.67;;;;;;;11.81;100.00;96067.94;5024059;28;20049;-80
2022/09/05 06:05:25;;;;;;;6.03;3.70;;;;;;;12.03;100.00;96069.56;5028668;28;20458;-77
2022/09/05 06:08:30;;;;;;;6.43;3.67;;;;;;;12.22;100.00;96062.69;5006036;28;20048;-77
2022/09/05 06:11:44;;;;;;;7.78;3.72;;;;;;;12.37;100.00;96063.72;5023340;28;20114;-77
2022/09/05 06:14:58;;;;;;;6.78;3.40;;;;;;;12.35;100.00;96065.84;5017877;28;20044;-77
2022/09/05 06:18:06;;;;;;;5.90;3.95;;;;;;;12.60;100.00;96063.16;5025703;28;20557;-77
2022/09/05 06:21:09;;;;;;;9.30;4.40;;;;;;;12.90;100.00;96072.03;5020597;28;20446;-78
2022/09/05 06:23:56;;;;;;;6.93;3.75;;;;;;;13.09;100.00;96069.56;5024257;28;20198;-78
2022/09/05 06:27:11;;;;;;;6.47;3.60;;;;;;;13.18;100.00;96067.16;5027945;28;20087;-77
2022/09/05 06:30:27;;;;;;;6.07;3.60;;;;;;;13.28;100.00;96071.59;5027757;28;20469;-78
2022/09/05 06:33:32;;;;;;;7.22;3.80;;;;;;;13.43;100.00;96068.09;5030567;28;20514;-76
2022/09/05 06:36:44;;;;;;;12.43;3.72;;;;;;;13.51;100.00;96075.47;5026787;28;20415;-78
2022/09/05 06:40:00;;;;;;;5.85;3.58;;;;;;;13.66;100.00;96072.72;5027100;28;20440;-77
2022/09/05 06:42:56;;;;;;;6.00;3.72;;;;;;;13.83;100.00;96071.53;5043605;28;20048;-78
2022/09/05 06:46:17;;;;;;;10.10;3.85;;;;;;;13.83;100.00;96066.25;5025325;28;20407;-77
2022/09/05 06:49:01;;;;;;;7.45;3.75;;;;;;;13.83;100.00;96071.53;5027991;28;20130;-78
2022/09/05 06:52:19;;;;;;;6.00;3.73;;;;;;;13.96;100.00;96065.63;5024608;28;20056;-79
2022/09/05 06:55:41;;;;;;;6.32;3.42;;;;;;;14.33;100.00;96069.53;5026297;28;20164;-78
2022/09/05 06:58:41;;;;;;;7.85;3.55;;;;;;;14.26;100.00;96060.34;5023266;28;20552;-77
2022/09/05 07:01:32;;;;;;;7.93;3.70;;;;;;;14.23;100.00;96053.75;5023572;28;20533;-78
2022/09/05 07:04:29;;;;;;;8.13;3.75;;;;;;;14.58;100.00;96070.34;5029190;28;20044;-77
2022/09/05 07:07:29;;;;;;;6.32;4.00;;;;;;;14.83;100.00;96071.97;5025023;28;20040;-80
2022/09/05 07:10:33;;;;;;;5.40;3.55;;;;;;;14.84;100.00;96070.09;5028494;28;20111;-78
2022/09/05 07:13:32;;;;;;;6.88;3.88;;;;;;;14.73;100.00;96070.22;5028830;28;20041;-77
2022/09/05 07:16:21;;;;;;;5.65;3.50;;;;;;;14.72;100.00;96079.28;5022197;28;20080;-82
2022/09/05 07:19:26;;;;;;;5.68;3.40;;;;;;;14.79;100.00;96080.78;5032332;28;20108;-77
2022/09/05 07:22:23;;;;;;;5.68;3.50;;;;;;;14.87;100.00;96077.53;5025513;28;20036;-79
2022/09/05 07:25:12;;;;;;;6.15;3.85;;;;;;;14.93;100.00;96081.69;5031204;28;20681;-79
2022/09/05 07:28:07;;;;;;;7.80;3.92;;;;;;;15.01;100.00;96081.06;5024075;28;20041;-79
2022/09/05 07:30:59;;;;;;;5.35;3.67;;;;;;;15.17;100.00;96075.56;5029920;28;20044;-83
2022/09/05 07:33:45;;;;;;;5.50;3.35;;;;;;;15.65;100.00;96083.41;5026246;28;20032;-81
2022/09/05 07:36:37;;;;;;;6.57;3.53;;;;;;;15.49;100.00;96082.84;5023918;28;20033;-82
2022/09/05 07:39:26;;;;;;;6.32;3.60;;;;;;;15.51;100.00;96085.19;5027122;28;20055;-80
2022/09/05 07:42:15;;;;;;;7.35;3.55;;;;;;;15.73;100.00;96077.47;5023825;28;20052;-81
2022/09/05 07:45:09;;;;;;;5.88;3.50;;;;;;;15.67;100.00;96078.59;5026223;28;20551;-80
2022/09/05 07:48:01;;;;;;;6.23;3.70;;;;;;;15.71;100.00;96082.25;5024463;28;20052;-81
2022/09/05 07:50:54;;;;;;;7.68;3.83;;;;;;;16.00;100.00;96085.84;5023206;28;20052;-82
2022/09/05 07:53:41;;;;;;;7.97;3.60;;;;;;;16.55;100.00;96095.81;5022152;28;20133;-80
2022/09/05 07:56:48;;;;;;;6.43;3.50;;;;;;;16.66;100.00;96091.88;5025776;28;20044;-79
2022/09/05 07:59:34;;;;;;;4.95;3.10;;;;;;;16.89;100.00;96087.50;5024427;28;20119;-82
2022/09/05 08:02:18;;;;;;;5.25;3.30;;;;;;;16.95;100.00;96088.19;5028474;28;20090;-78
2022/09/05 08:05:04;;;;;;;5.47;3.67;;;;;;;16.88;100.00;96087.78;5029590;28;20041;-84
2022/09/05 08:08:00;;;;;;;5.45;3.60;;;;;;;17.00;100.00;96096.09;5022843;28;20715;-78
2022/09/05 08:10:49;;;;;;;8.00;3.95;;;;;;;16.68;100.00;96089.75;5017781;28;20398;-78
2022/09/05 08:13:41;;;;;;;5.90;3.63;;;;;;;16.66;100.00;96085.78;5025388;28;20475;-78
2022/09/05 08:16:26;;;;;;;4.97;3.35;;;;;;;16.68;100.00;96084.44;5013141;28;20040;-83
2022/09/05 08:19:29;;;;;;;6.15;3.50;;;;;;;16.66;100.00;96091.88;5011450;28;20103;-83
2022/09/05 08:22:20;;;;;;;8.60;3.30;;;;;;;16.61;100.00;96084.81;5020245;28;20470;-76
2022/09/05 08:25:19;;;;;;;5.82;3.97;;;;;;;16.70;100.00;96087.56;5029892;28;20048;-80
2022/09/05 08:28:19;;;;;;;7.72;3.65;;;;;;;17.02;100.00;96080.59;5027725;28;20180;-79
2022/09/05 08:31:08;;;;;;;5.55;3.17;;;;;;;16.89;100.00;96078.75;5029570;28;20044;-79
2022/09/05 08:33:59;;;;;;;6.72;3.65;;;;;;;16.88;100.00;96077.16;5024608;28;20087;-79
2022/09/05 08:36:46;;;;;;;7.88;3.50;;;;;;;17.41;100.00;96073.97;5030476;28;20095;-79
2022/09/05 08:39:32;;;;;;;6.43;3.60;;;;;;;17.24;100.00;96074.59;5023087;28;20040;-80
2022/09/05 08:42:41;;;;;;;8.88;3.90;;;;;;;17.20;100.00;96078.94;5020862;28;20047;-79
2022/09/05 08:45:36;;;;;;;5.88;3.40;;;;;;;17.19;100.00;96071.25;5024605;28;20048;-78
2022/09/05 08:48:56;;;;;;;7.75;3.50;;;;;;;17.61;100.00;96071.94;5027617;28;20285;-82
2022/09/05 08:51:57;;;;;;;5.80;3.30;;;;;;;18.14;100.00;96068.59;5023442;28;20060;-79
2022/09/05 08:55:17;;;;;;;5.40;3.42;;;;;;;18.30;100.00;96070.88;5030802;28;20048;-79
2022/09/05 08:58:09;;;;;;;5.68;3.47;;;;;;;18.05;100.00;96065.09;5030179;28;20052;-79
2022/09/05 09:01:23;;;;;;;4.97;3.42;;;;;;;17.95;100.00;96062.69;5027494;28;20087;-82
2022/09/05 09:05:05;;;;;;;4.72;3.50;;;;;;;17.79;100.00;96068.34;5023186;28;20140;-79
2022/09/05 09:08:13;;;;;;;5.25;3.10;;;;;;;18.58;100.00;96071.50;5004712;28;20122;-80
2022/09/05 09:11:04;;;;;;;6.38;3.60;;;;;;;18.94;100.00;96056.47;5040234;28;20087;-81
2022/09/05 09:13:54;;;;;;;6.28;3.60;;;;;;;19.21;100.00;96050.09;5028278;28;20110;-80
2022/09/05 09:17:01;;;;;;;6.60;3.53;;;;;;;19.25;100.00;96050.25;5019803;28;20075;-81
2022/09/05 09:20:20;;;;;;;5.18;3.30;;;;;;;18.73;100.00;96046.31;5022861;28;20033;-82
2022/09/05 09:23:20;;;;;;;6.80;3.30;;;;;;;18.59;100.00;96034.97;5025002;28;20131;-81
2022/09/05 09:26:14;;;;;;;6.43;3.47;;;;;;;19.39;100.00;96037.53;5018368;28;20470;-82
2022/09/05 09:29:05;;;;;;;6.63;3.40;;;;;;;19.54;100.00;96042.41;5021898;28;20099;-82
2022/09/05 09:32:05;;;;;;;4.85;3.45;;;;;;;19.21;100.00;96039.41;5026778;28;20044;-82
2022/09/05 09:35:04;;;;;;;7.38;3.63;;;;;;;19.13;100.00;96040.94;5026046;28;20071;-81
2022/09/05 09:38:12;;;;;;;5.47;3.05;;;;;;;19.46;100.00;96040.53;5020306;28;20059;-82
2022/09/05 09:41:18;;;;;;;7.13;3.58;;;;;;;19.86;100.00;96037.72;5026188;28;20059;-81
2022/09/05 09:44:24;;;;;;;5.65;3.85;;;;;;;19.63;100.00;96022.94;5027648;28;20091;-83
2022/09/05 09:47:15;;;;;;;4.78;3.45;;;;;;;19.88;100.00;96030.19;5023130;28;20065;-82
2022/09/05 09:50:15;;;;;;;6.45;3.58;;;;;;;20.31;100.00;96036.53;5021083;28;20267;-83
2022/09/05 09:53:51;;;;;;;6.00;3.50;;;;;;;20.60;100.00;96027.78;5027609;28;20099;-88
2022/09/05 09:56:53;;;;;;;;;;;;;;;20.62;100.00;96037.38;4993177;28;20141;-80
2022/09/05 09:59:37;;;;;;;5.32;3.22;;;;;;;20.83;100.00;96030.25;4999962;28;19951;-80
2022/09/05 10:02:47;;;;;;;4.80;3.30;;;;;;;21.44;97.85;96037.09;5027057;28;20079;-80
2022/09/05 10:05:50;;;;;;;4.68;2.90;;;;;;;21.37;98.04;96031.47;5031807;28;20036;-80
2022/09/05 10:08:59;;;;;;;6.32;3.40;;;;;;;22.09;96.49;96034.06;5032694;28;20087;-78
2022/09/05 10:12:07;;;;;;;4.95;3.20;;;;;;;22.47;84.07;96033.06;5030402;28;20652;-78
2022/09/05 10:15:00;;;;;;;5.22;3.00;;;;;;;22.94;88.23;96029.94;5029915;28;20560;-77
2022/09/05 10:18:12;;;;;;;5.43;3.40;;;;;;;23.29;86.16;96029.47;5029173;28;20094;-76
2022/09/05 10:21:15;;;;;;;6.97;3.20;;;;;;;24.34;83.26;96027.72;5032823;28;20566;-77
2022/09/05 10:24:38;;;;;;;5.85;3.38;;;;;;;24.45;78.34;96027.22;5032120;28;20067;-78
2022/09/05 10:27:41;;;;;;;7.03;3.13;;;;;;;25.04;78.75;96026.34;5025476;28;20736;-78
2022/09/05 10:30:58;;;;;;;6.53;3.33;;;;;;;25.13;74.71;96017.25;5031266;28;20561;-78
2022/09/05 10:33:47;;;;;;;7.40;3.33;;;;;;;24.92;77.83;96018.34;5045114;28;20091;-77
2022/09/05 10:36:31;;;;;;;4.07;3.08;;;;;;;25.98;71.00;96012.09;5031819;28;20095;-80
2022/09/05 10:39:26;;;;;;;5.30;3.10;;;;;;;26.43;73.73;96010.59;5028843;28;20107;-81
2022/09/05 10:42:24;;;;;;;5.78;3.28;;;;;;;26.74;66.02;96010.72;5031178;28;20083;-82
2022/09/05 10:45:15;;;;;;;5.80;3.25;;;;;;;26.33;70.45;96005.78;5032213;28;20643;-79
2022/09/05 10:48:12;;;;;;;5.53;3.28;;;;;;;26.59;62.45;96001.59;5032282;28;20049;-84
2022/09/05 10:51:05;;;;;;;5.28;3.05;;;;;;;26.94;60.30;96006.78;5025730;28;20120;-77
2022/09/05 10:54:25;;;;;;;5.30;3.47;;;;;;;26.51;63.39;96005.31;5029813;28;20060;-77
2022/09/05 10:57:10;;;;;;;5.78;3.40;;;;;;;26.19;65.14;96002.84;5024024;28;20067;-78
2022/09/05 11:00:05;;;;;;;5.80;3.47;;;;;;;26.59;64.73;95996.19;5028237;28;20072;-77
2022/09/05 11:02:57;;;;;;;5.68;3.65;;;;;;;26.33;62.36;95989.59;5027162;28;20091;-79
2022/09/05 11:05:50;;;;;;;6.75;3.47;;;;;;;26.54;57.56;95993.81;5031504;28;20113;-79
2022/09/05 11:08:59;;;;;;;6.30;3.47;;;;;;;26.99;57.01;95986.78;5023223;28;20084;-78
2022/09/05 11:11:49;;;;;;;5.38;3.47;;;;;;;26.85;57.84;95981.19;5029443;28;20852;-80
2022/09/05 11:14:48;;;;;;;4.63;3.55;;;;;;;26.67;57.31;95981.66;5025984;28;20044;-79
2022/09/05 11:17:45;;;;;;;7.72;3.60;;;;;;;26.73;55.21;95980.22;5024961;28;20036;-78
2022/09/05 11:20:59;;;;;;;7.15;3.63;;;;;;;27.95;58.36;95977.53;5031543;28;20101;-78
2022/09/05 11:23:49;;;;;;;5.43;3.78;;;;;;;28.07;54.40;95981.94;5029073;28;20458;-78
2022/09/05 11:26:41;;;;;;;5.00;3.90;;;;;;;28.52;52.93;95986.19;5020602;28;20040;-77
2022/09/05 11:29:45;;;;;;;5.63;4.15;;;;;;;29.51;51.67;95978.31;5025935;28;20044;-78
2022/09/05 11:32:41;;;;;;;5.22;3.45;;;;;;;29.59;53.00;95976.41;5022649;28;20542;-77
2022/09/05 11:35:32;;;;;;;5.63;4.00;;;;;;;28.52;51.33;95974.59;5027036;28;20091;-77
2022/09/05 11:38:28;;;;;;;5.28;3.80;;;;;;;29.01;50.44;95973.41;5028259;28;20407;-77
2022/09/05 11:41:43;;;;;;;7.00;4.25;;;;;;;29.87;47.42;95972.25;5030174;28;20518;-78
2022/09/05 11:44:52;;;;;;;7.10;4.20;;;;;;;30.68;45.48;95969.22;5028491;28;20179;-78
2022/09/05 11:48:01;;;;;;;7.20;4.07;;;;;;;30.29;44.40;95964.56;5027524;28;20037;-77
2022/09/05 11:51:13;;;;;;;5.68;4.15;;;;;;;29.61;45.16;95965.16;5030822;28;20040;-78
2022/09/05 11:54:36;;;;;;;7.95;4.60;;;;;;;31.90;42.09;95957.97;5043567;28;20072;-77
2022/09/05 11:57:34;;;;;;;8.07;4.05;;;;;;;30.81;41.29;95956.78;5023986;28;20578;-78
2022/09/05 12:00:31;;;;;;;7.95;4.20;;;;;;;30.56;43.32;95956.81;5029841;28;20040;-77
2022/09/05 12:03:41;;;;;;;5.78;4.43;;;;;;;30.82;39.68;95958.34;5029825;28;20044;-77
2022/09/05 12:06:46;;;;;;;6.68;4.43;;;;;;;30.17;40.85;95952.13;5031545;28;20036;-77
2022/09/05 12:09:55;;;;;;;11.57;4.68;;;;;;;30.66;42.61;95949.81;5026363;28;20516;-78
2022/09/05 12:12:58;;;;;;;8.13;4.25;;;;;;;30.60;41.38;95946.72;5020450;28;20114;-78
2022/09/05 12:15:45;;;;;;;9.23;4.55;;;;;;;31.57;40.00;95941.03;5030357;28;20043;-79
2022/09/05 12:18:48;;;;;;;6.53;4.28;;;;;;;30.60;42.54;95945.94;5031934;28;20052;-79
2022/09/05 12:21:37;;;;;;;8.57;4.82;;;;;;;31.43;39.10;95935.66;5025250;28;20041;-79
2022/09/05 12:24:40;;;;;;;7.00;4.38;;;;;;;31.88;41.41;95927.66;5032679;28;20032;-77
2022/09/05 12:27:34;;;;;;;11.13;4.68;;;;;;;32.88;37.05;95930.75;5031823;28;20079;-78
2022/09/05 12:30:28;;;;;;;8.57;4.50;;;;;;;32.21;38.54;95927.44;5031292;28;20509;-78
2022/09/05 12:33:12;;;;;;;7.05;4.80;;;;;;;31.75;39.91;95929.28;5031378;28;20051;-79
2022/09/05 12:36:01;;;;;;;9.30;4.57;;;;;;;32.36;37.72;95928.13;5031268;28;20094;-79
2022/09/05 12:38:51;;;;;;;8.13;4.70;;;;;;;31.74;39.30;95933.19;5028126;28;20040;-79
2022/09/05 12:41:52;;;;;;;11.40;4.65;;;;;;;32.69;38.37;95925.91;5031538;28;20071;-79
2022/09/05 12:45:08;;;;;;;8.25;4.45;;;;;;;32.17;38.82;95930.22;5031374;28;20056;-79
2022/09/05 12:48:00;;;;;;;6.15;4.60;;;;;;;33.68;33.80;95931.38;5031333;28;20040;-79
2022/09/05 12:51:31;;;;;;;7.22;4.78;;;;;;;32.92;34.56;95926.03;5029698;28;20048;-79
2022/09/05 12:54:33;;;;;;;6.78;4.40;;;;;;;33.17;36.81;95922.25;5028052;28;20422;-77
2022/09/05 12:57:26;;;;;;;7.72;4.53;;;;;;;33.40;35.28;95926.28;5028559;28;20032;-77
2022/09/05 13:00:14;;;;;;;6.32;4.60;;;;;;;34.24;32.80;95916.53;5013469;28;20550;-76
2022/09/05 13:03:01;;;;;;;6.40;4.50;;;;;;;34.28;32.66;95922.75;5020031;28;20049;-77
2022/09/05 13:05:52;;;;;;;9.15;4.50;;;;;;;33.67;32.20;95918.91;5025256;28;20035;-78
2022/09/05 13:08:46;;;;;;;8.57;4.80;;;;;;;33.85;32.66;95915.19;5024063;28;20087;-77
2022/09/05 13:11:44;;;;;;;7.95;4.88;;;;;;;34.03;30.73;95911.41;5029273;28;20040;-78
2022/09/05 13:14:44;;;;;;;10.63;4.68;;;;;;;33.15;33.43;95906.31;5021465;28;20183;-78
2022/09/05 13:17:43;;;;;;;8.88;4.75;;;;;;;34.27;32.24;95904.03;5017266;28;20123;-78
2022/09/05 13:20:35;;;;;;;6.00;4.70;;;;;;;34.98;30.58;95899.25;5016804;28;20041;-78
2022/09/05 13:23:31;;;;;;;6.30;4.43;;;;;;;33.27;33.75;95902.28;5022357;28;20043;-78
2022/09/05 13:26:22;;;;;;;8.32;4.70;;;;;;;33.48;35.30;95900.47;5021101;28;20423;-77
2022/09/05 13:29:17;;;;;;;7.50;4.50;;;;;;;33.90;32.68;95881.97;5020801;28;20107;-77
2022/09/05 13:32:08;;;;;;;18.50;5.53;;;;;;;33.15;33.47;95889.19;5023373;28;20044;-77
2022/09/05 13:35:03;;;;;;;6.88;4.22;;;;;;;33.80;34.34;95882.91;5026569;28;20037;-77
2022/09/05 13:37:57;;;;;;;8.52;5.13;;;;;;;34.43;30.91;95885.03;5025792;28;20041;-77
2022/09/05 13:40:43;;;;;;;;;;;;;;;33.64;31.42;95878.81;5027034;28;20479;-78
2022/09/05 13:43:37;;;;;;;8.95;4.78;;;;;;;34.66;31.58;95886.19;5030318;28;19931;-78
2022/09/05 13:46:27;;;;;;;;;;;;;;;35.00;30.24;95888.69;5024793;28;20044;-78
2022/09/05 13:49:35;;;;;;;8.77;4.78;;;;;;;34.74;31.25;95878.63;5026495;28;20378;-78
2022/09/05 13:52:33;;;;;;;7.07;4.43;;;;;;;35.04;30.32;95878.44;5020009;28;20036;-77
2022/09/05 13:55:26;;;;;;;7.60;4.80;;;;;;;33.24;32.81;95875.06;5027651;28;20091;-78